sensor_id;sensor_type;location;lat;lon;timestamp;P1;durP1;ratioP1;P2;durP2;ratioP2
62338;SDS011;48368;53.406;6.214;2023-03-14T00:01:12;24.02;;;4.03;;
62338;SDS011;48368;53.406;6.214;2023-03-14T00:03:40;18.55;;;4.18;;
62338;SDS011;48368;53.406;6.214;2023-03-14T00:06:06;24.10;;;4.07;;
62338;SDS011;48368;53.406;6.214;2023-03-14T00:08:33;21.50;;;4.30;;
62338;SDS011;48368;53.406;6.214;2023-03-14T00:11:03;32.47;;;4.25;;
62338;SDS011;48368;53.406;6.214;2023-03-14T00:13:41;19.05;;;4.00;;
62338;SDS011;48368;53.406;6.214;2023-03-14T00:16:09;21.48;;;4.57;;
62338;SDS011;48368;53.406;6.214;2023-03-14T00:18:35;37.00;;;6.05;;
62338;SDS011;48368;53.406;6.214;2023-03-14T00:21:02;24.17;;;4.57;;
62338;SDS011;48368;53.406;6.214;2023-03-14T00:23:29;25.40;;;4.65;;
62338;SDS011;48368;53.406;6.214;2023-03-14T00:25:59;21.67;;;3.83;;
62338;SDS011;48368;53.406;6.214;2023-03-14T00:28:26;26.80;;;3.45;;
62338;SDS011;48368;53.406;6.214;2023-03-14T00:30:52;19.23;;;4.28;;
62338;SDS011;48368;53.406;6.214;2023-03-14T00:33:18;18.73;;;4.93;;
62338;SDS011;48368;53.406;6.214;2023-03-14T00:35:51;17.98;;;3.92;;
62338;SDS011;48368;53.406;6.214;2023-03-14T00:38:30;26.55;;;4.20;;
62338;SDS011;48368;53.406;6.214;2023-03-14T00:40:57;22.20;;;4.05;;
62338;SDS011;48368;53.406;6.214;2023-03-14T00:43:23;19.17;;;4.18;;
62338;SDS011;48368;53.406;6.214;2023-03-14T00:45:49;20.88;;;4.00;;
62338;SDS011;48368;53.406;6.214;2023-03-14T00:48:16;27.33;;;3.85;;
62338;SDS011;48368;53.406;6.214;2023-03-14T00:50:43;22.45;;;4.05;;
62338;SDS011;48368;53.406;6.214;2023-03-14T00:53:09;26.42;;;4.20;;
62338;SDS011;48368;53.406;6.214;2023-03-14T00:55:38;22.38;;;3.22;;
62338;SDS011;48368;53.406;6.214;2023-03-14T00:58:05;22.27;;;5.43;;
62338;SDS011;48368;53.406;6.214;2023-03-14T01:00:30;21.05;;;3.42;;
62338;SDS011;48368;53.406;6.214;2023-03-14T01:02:56;20.73;;;4.05;;
62338;SDS011;48368;53.406;6.214;2023-03-14T01:05:22;14.15;;;3.22;;
62338;SDS011;48368;53.406;6.214;2023-03-14T01:07:48;19.35;;;3.08;;
62338;SDS011;48368;53.406;6.214;2023-03-14T01:10:14;19.42;;;4.55;;
62338;SDS011;48368;53.406;6.214;2023-03-14T01:12:41;23.23;;;4.82;;
62338;SDS011;48368;53.406;6.214;2023-03-14T01:15:07;17.08;;;4.05;;
62338;SDS011;48368;53.406;6.214;2023-03-14T01:17:33;20.73;;;3.85;;
62338;SDS011;48368;53.406;6.214;2023-03-14T01:19:59;23.83;;;3.97;;
62338;SDS011;48368;53.406;6.214;2023-03-14T01:22:25;21.10;;;3.97;;
62338;SDS011;48368;53.406;6.214;2023-03-14T01:24:51;24.02;;;3.70;;
62338;SDS011;48368;53.406;6.214;2023-03-14T01:27:16;27.23;;;4.28;;
62338;SDS011;48368;53.406;6.214;2023-03-14T01:29:42;22.92;;;4.20;;
62338;SDS011;48368;53.406;6.214;2023-03-14T01:32:08;18.33;;;3.58;;
62338;SDS011;48368;53.406;6.214;2023-03-14T01:34:33;19.65;;;3.17;;
62338;SDS011;48368;53.406;6.214;2023-03-14T01:36:59;18.63;;;4.15;;
62338;SDS011;48368;53.406;6.214;2023-03-14T01:39:24;18.33;;;3.65;;
62338;SDS011;48368;53.406;6.214;2023-03-14T01:41:50;18.27;;;4.00;;
62338;SDS011;48368;53.406;6.214;2023-03-14T01:44:16;23.02;;;4.65;;
62338;SDS011;48368;53.406;6.214;2023-03-14T01:46:42;18.88;;;3.67;;
62338;SDS011;48368;53.406;6.214;2023-03-14T01:51:38;19.10;;;4.22;;
62338;SDS011;48368;53.406;6.214;2023-03-14T01:59:38;21.60;;;3.03;;
62338;SDS011;48368;53.406;6.214;2023-03-14T02:02:08;25.35;;;3.50;;
62338;SDS011;48368;53.406;6.214;2023-03-14T02:04:36;21.60;;;4.45;;
62338;SDS011;48368;53.406;6.214;2023-03-14T02:09:38;19.00;;;3.50;;
62338;SDS011;48368;53.406;6.214;2023-03-14T02:12:14;23.42;;;4.25;;
62338;SDS011;48368;53.406;6.214;2023-03-14T02:14:41;25.17;;;5.63;;
62338;SDS011;48368;53.406;6.214;2023-03-14T02:17:12;24.92;;;3.92;;
62338;SDS011;48368;53.406;6.214;2023-03-14T02:22:14;21.30;;;3.97;;
62338;SDS011;48368;53.406;6.214;2023-03-14T02:25:05;15.40;;;3.78;;
62338;SDS011;48368;53.406;6.214;2023-03-14T02:27:39;22.45;;;3.70;;
62338;SDS011;48368;53.406;6.214;2023-03-14T02:30:06;28.90;;;5.18;;
62338;SDS011;48368;53.406;6.214;2023-03-14T02:32:37;19.65;;;4.13;;
62338;SDS011;48368;53.406;6.214;2023-03-14T02:35:07;20.23;;;3.75;;
62338;SDS011;48368;53.406;6.214;2023-03-14T02:37:43;24.30;;;3.58;;
62338;SDS011;48368;53.406;6.214;2023-03-14T02:40:24;23.70;;;4.20;;
62338;SDS011;48368;53.406;6.214;2023-03-14T02:42:49;29.17;;;4.90;;
62338;SDS011;48368;53.406;6.214;2023-03-14T02:47:45;19.95;;;4.40;;
62338;SDS011;48368;53.406;6.214;2023-03-14T02:50:17;26.35;;;5.82;;
62338;SDS011;48368;53.406;6.214;2023-03-14T02:52:46;28.33;;;5.53;;
62338;SDS011;48368;53.406;6.214;2023-03-14T02:55:11;21.25;;;6.65;;
62338;SDS011;48368;53.406;6.214;2023-03-14T02:57:37;21.65;;;5.80;;
62338;SDS011;48368;53.406;6.214;2023-03-14T03:00:03;21.45;;;5.00;;
62338;SDS011;48368;53.406;6.214;2023-03-14T03:02:30;22.73;;;5.13;;
62338;SDS011;48368;53.406;6.214;2023-03-14T03:04:56;26.55;;;6.28;;
62338;SDS011;48368;53.406;6.214;2023-03-14T03:07:21;25.80;;;4.93;;
62338;SDS011;48368;53.406;6.214;2023-03-14T03:09:47;23.77;;;5.00;;
62338;SDS011;48368;53.406;6.214;2023-03-14T03:12:13;20.27;;;5.20;;
62338;SDS011;48368;53.406;6.214;2023-03-14T03:14:38;32.22;;;6.38;;
62338;SDS011;48368;53.406;6.214;2023-03-14T03:17:04;24.15;;;5.68;;
62338;SDS011;48368;53.406;6.214;2023-03-14T03:19:30;25.00;;;5.85;;
62338;SDS011;48368;53.406;6.214;2023-03-14T03:21:57;31.23;;;6.13;;
62338;SDS011;48368;53.406;6.214;2023-03-14T03:24:23;30.50;;;6.65;;
62338;SDS011;48368;53.406;6.214;2023-03-14T03:26:52;32.78;;;7.43;;
62338;SDS011;48368;53.406;6.214;2023-03-14T03:29:18;27.60;;;6.18;;
62338;SDS011;48368;53.406;6.214;2023-03-14T03:31:44;35.63;;;8.95;;
62338;SDS011;48368;53.406;6.214;2023-03-14T03:34:12;32.47;;;7.47;;
62338;SDS011;48368;53.406;6.214;2023-03-14T03:36:39;37.53;;;7.05;;
62338;SDS011;48368;53.406;6.214;2023-03-14T03:39:04;29.88;;;6.75;;
62338;SDS011;48368;53.406;6.214;2023-03-14T03:41:30;41.38;;;7.95;;
62338;SDS011;48368;53.406;6.214;2023-03-14T03:43:57;28.75;;;7.72;;
62338;SDS011;48368;53.406;6.214;2023-03-14T03:46:22;32.83;;;6.93;;
62338;SDS011;48368;53.406;6.214;2023-03-14T03:48:48;34.90;;;6.07;;
62338;SDS011;48368;53.406;6.214;2023-03-14T03:51:23;33.55;;;7.25;;
62338;SDS011;48368;53.406;6.214;2023-03-14T03:53:48;33.78;;;6.60;;
62338;SDS011;48368;53.406;6.214;2023-03-14T03:56:14;34.58;;;7.18;;
62338;SDS011;48368;53.406;6.214;2023-03-14T03:58:40;38.83;;;7.05;;
62338;SDS011;48368;53.406;6.214;2023-03-14T04:01:07;44.03;;;8.75;;
62338;SDS011;48368;53.406;6.214;2023-03-14T04:03:33;38.25;;;7.43;;
62338;SDS011;48368;53.406;6.214;2023-03-14T04:06:10;31.33;;;7.30;;
62338;SDS011;48368;53.406;6.214;2023-03-14T04:08:39;44.35;;;7.43;;
62338;SDS011;48368;53.406;6.214;2023-03-14T04:11:08;49.10;;;8.38;;
62338;SDS011;48368;53.406;6.214;2023-03-14T04:13:34;42.40;;;7.70;;
62338;SDS011;48368;53.406;6.214;2023-03-14T04:16:00;49.30;;;7.82;;
62338;SDS011;48368;53.406;6.214;2023-03-14T04:18:26;41.92;;;8.05;;
62338;SDS011;48368;53.406;6.214;2023-03-14T04:20:52;42.65;;;7.45;;
62338;SDS011;48368;53.406;6.214;2023-03-14T04:23:19;46.63;;;7.35;;
62338;SDS011;48368;53.406;6.214;2023-03-14T04:25:45;51.72;;;9.23;;
62338;SDS011;48368;53.406;6.214;2023-03-14T04:28:10;42.33;;;9.05;;
62338;SDS011;48368;53.406;6.214;2023-03-14T04:30:36;37.90;;;8.45;;
62338;SDS011;48368;53.406;6.214;2023-03-14T04:33:02;43.53;;;8.68;;
62338;SDS011;48368;53.406;6.214;2023-03-14T04:35:29;44.15;;;7.85;;
62338;SDS011;48368;53.406;6.214;2023-03-14T04:37:56;35.38;;;6.82;;
62338;SDS011;48368;53.406;6.214;2023-03-14T04:40:22;49.00;;;8.18;;
62338;SDS011;48368;53.406;6.214;2023-03-14T04:42:47;47.78;;;9.82;;
62338;SDS011;48368;53.406;6.214;2023-03-14T04:45:13;42.20;;;8.65;;
62338;SDS011;48368;53.406;6.214;2023-03-14T04:47:39;42.63;;;9.10;;
62338;SDS011;48368;53.406;6.214;2023-03-14T04:50:05;42.40;;;8.77;;
62338;SDS011;48368;53.406;6.214;2023-03-14T04:52:30;39.78;;;8.55;;
62338;SDS011;48368;53.406;6.214;2023-03-14T04:54:56;38.03;;;7.70;;
62338;SDS011;48368;53.406;6.214;2023-03-14T04:57:22;35.72;;;8.35;;
62338;SDS011;48368;53.406;6.214;2023-03-14T04:59:47;36.67;;;7.72;;
62338;SDS011;48368;53.406;6.214;2023-03-14T05:02:13;28.50;;;6.47;;
62338;SDS011;48368;53.406;6.214;2023-03-14T05:04:39;28.15;;;5.63;;
62338;SDS011;48368;53.406;6.214;2023-03-14T05:07:04;33.40;;;6.20;;
62338;SDS011;48368;53.406;6.214;2023-03-14T05:09:30;26.15;;;6.32;;
62338;SDS011;48368;53.406;6.214;2023-03-14T05:11:56;26.05;;;5.57;;
62338;SDS011;48368;53.406;6.214;2023-03-14T05:14:21;33.75;;;6.35;;
62338;SDS011;48368;53.406;6.214;2023-03-14T05:16:47;20.10;;;4.22;;
62338;SDS011;48368;53.406;6.214;2023-03-14T05:19:13;20.35;;;4.20;;
62338;SDS011;48368;53.406;6.214;2023-03-14T05:21:38;18.20;;;4.25;;
62338;SDS011;48368;53.406;6.214;2023-03-14T05:24:04;17.65;;;4.28;;
62338;SDS011;48368;53.406;6.214;2023-03-14T05:26:30;14.45;;;4.63;;
62338;SDS011;48368;53.406;6.214;2023-03-14T05:28:55;21.77;;;4.38;;
62338;SDS011;48368;53.406;6.214;2023-03-14T05:31:21;16.88;;;4.30;;
62338;SDS011;48368;53.406;6.214;2023-03-14T05:33:47;14.20;;;3.55;;
62338;SDS011;48368;53.406;6.214;2023-03-14T05:36:13;19.08;;;4.53;;
62338;SDS011;48368;53.406;6.214;2023-03-14T05:38:38;16.00;;;3.40;;
62338;SDS011;48368;53.406;6.214;2023-03-14T05:41:04;13.93;;;4.18;;
62338;SDS011;48368;53.406;6.214;2023-03-14T05:43:30;18.35;;;2.53;;
62338;SDS011;48368;53.406;6.214;2023-03-14T05:45:55;25.50;;;3.28;;
62338;SDS011;48368;53.406;6.214;2023-03-14T05:48:21;11.40;;;1.95;;
62338;SDS011;48368;53.406;6.214;2023-03-14T05:50:47;16.10;;;2.90;;
62338;SDS011;48368;53.406;6.214;2023-03-14T05:53:13;18.08;;;2.60;;
62338;SDS011;48368;53.406;6.214;2023-03-14T05:55:39;22.85;;;2.28;;
62338;SDS011;48368;53.406;6.214;2023-03-14T05:58:05;16.92;;;2.03;;
62338;SDS011;48368;53.406;6.214;2023-03-14T06:00:31;31.00;;;3.05;;
62338;SDS011;48368;53.406;6.214;2023-03-14T06:02:57;25.83;;;4.13;;
62338;SDS011;48368;53.406;6.214;2023-03-14T06:05:22;15.13;;;1.70;;
62338;SDS011;48368;53.406;6.214;2023-03-14T06:07:48;9.45;;;1.42;;
62338;SDS011;48368;53.406;6.214;2023-03-14T06:10:14;19.02;;;3.00;;
62338;SDS011;48368;53.406;6.214;2023-03-14T06:12:40;18.30;;;2.53;;
62338;SDS011;48368;53.406;6.214;2023-03-14T06:15:05;14.15;;;2.08;;
62338;SDS011;48368;53.406;6.214;2023-03-14T06:17:32;13.73;;;1.42;;
62338;SDS011;48368;53.406;6.214;2023-03-14T06:19:57;15.23;;;1.55;;
62338;SDS011;48368;53.406;6.214;2023-03-14T06:22:23;10.88;;;1.13;;
62338;SDS011;48368;53.406;6.214;2023-03-14T06:24:49;14.10;;;1.75;;
62338;SDS011;48368;53.406;6.214;2023-03-14T06:27:29;8.73;;;1.25;;
62338;SDS011;48368;53.406;6.214;2023-03-14T06:29:55;10.18;;;1.33;;
62338;SDS011;48368;53.406;6.214;2023-03-14T06:32:21;3.55;;;0.55;;
62338;SDS011;48368;53.406;6.214;2023-03-14T06:34:47;9.20;;;0.50;;
62338;SDS011;48368;53.406;6.214;2023-03-14T06:37:12;7.43;;;0.55;;
62338;SDS011;48368;53.406;6.214;2023-03-14T06:39:38;4.95;;;0.75;;
62338;SDS011;48368;53.406;6.214;2023-03-14T06:42:04;11.00;;;1.65;;
62338;SDS011;48368;53.406;6.214;2023-03-14T06:44:30;5.00;;;0.80;;
62338;SDS011;48368;53.406;6.214;2023-03-14T06:46:55;13.35;;;1.00;;
62338;SDS011;48368;53.406;6.214;2023-03-14T06:49:21;6.68;;;0.40;;
62338;SDS011;48368;53.406;6.214;2023-03-14T06:51:47;6.65;;;0.88;;
62338;SDS011;48368;53.406;6.214;2023-03-14T06:54:13;6.07;;;0.90;;
62338;SDS011;48368;53.406;6.214;2023-03-14T06:56:38;8.05;;;1.05;;
62338;SDS011;48368;53.406;6.214;2023-03-14T06:59:04;3.33;;;0.57;;
62338;SDS011;48368;53.406;6.214;2023-03-14T07:01:30;12.05;;;1.95;;
62338;SDS011;48368;53.406;6.214;2023-03-14T07:03:57;2.15;;;0.40;;
62338;SDS011;48368;53.406;6.214;2023-03-14T07:06:23;1.92;;;0.40;;
62338;SDS011;48368;53.406;6.214;2023-03-14T07:08:50;7.22;;;0.45;;
62338;SDS011;48368;53.406;6.214;2023-03-14T07:11:16;6.53;;;0.63;;
62338;SDS011;48368;53.406;6.214;2023-03-14T07:13:41;3.95;;;0.70;;
62338;SDS011;48368;53.406;6.214;2023-03-14T07:16:07;6.75;;;0.93;;
62338;SDS011;48368;53.406;6.214;2023-03-14T07:18:34;9.45;;;0.80;;
62338;SDS011;48368;53.406;6.214;2023-03-14T07:20:59;4.65;;;0.85;;
62338;SDS011;48368;53.406;6.214;2023-03-14T07:23:25;3.22;;;0.68;;
62338;SDS011;48368;53.406;6.214;2023-03-14T07:25:50;9.10;;;1.15;;
62338;SDS011;48368;53.406;6.214;2023-03-14T07:28:18;4.40;;;0.75;;
62338;SDS011;48368;53.406;6.214;2023-03-14T07:30:46;2.88;;;0.60;;
62338;SDS011;48368;53.406;6.214;2023-03-14T07:33:12;4.63;;;0.60;;
62338;SDS011;48368;53.406;6.214;2023-03-14T07:35:38;7.25;;;0.93;;
62338;SDS011;48368;53.406;6.214;2023-03-14T07:38:04;7.97;;;1.00;;
62338;SDS011;48368;53.406;6.214;2023-03-14T07:40:29;11.25;;;1.45;;
62338;SDS011;48368;53.406;6.214;2023-03-14T07:42:55;4.30;;;0.20;;
62338;SDS011;48368;53.406;6.214;2023-03-14T07:45:21;7.15;;;0.90;;
62338;SDS011;48368;53.406;6.214;2023-03-14T07:47:46;8.73;;;0.95;;
62338;SDS011;48368;53.406;6.214;2023-03-14T07:50:12;14.55;;;1.42;;
62338;SDS011;48368;53.406;6.214;2023-03-14T07:52:38;13.20;;;1.65;;
62338;SDS011;48368;53.406;6.214;2023-03-14T07:55:03;10.02;;;1.73;;
62338;SDS011;48368;53.406;6.214;2023-03-14T07:57:29;6.03;;;1.27;;
62338;SDS011;48368;53.406;6.214;2023-03-14T07:59:55;6.75;;;0.98;;
62338;SDS011;48368;53.406;6.214;2023-03-14T08:02:21;10.38;;;1.27;;
62338;SDS011;48368;53.406;6.214;2023-03-14T08:04:48;7.03;;;0.88;;
62338;SDS011;48368;53.406;6.214;2023-03-14T08:07:14;12.95;;;1.45;;
62338;SDS011;48368;53.406;6.214;2023-03-14T08:09:40;10.40;;;0.90;;
62338;SDS011;48368;53.406;6.214;2023-03-14T08:12:06;13.27;;;1.30;;
62338;SDS011;48368;53.406;6.214;2023-03-14T08:14:33;11.07;;;3.50;;
62338;SDS011;48368;53.406;6.214;2023-03-14T08:16:58;28.23;;;2.45;;
62338;SDS011;48368;53.406;6.214;2023-03-14T08:19:24;9.40;;;2.13;;
62338;SDS011;48368;53.406;6.214;2023-03-14T08:21:50;4.80;;;1.13;;
62338;SDS011;48368;53.406;6.214;2023-03-14T08:24:16;14.05;;;2.67;;
62338;SDS011;48368;53.406;6.214;2023-03-14T08:26:41;17.27;;;3.10;;
62338;SDS011;48368;53.406;6.214;2023-03-14T08:29:07;16.67;;;2.00;;
62338;SDS011;48368;53.406;6.214;2023-03-14T08:31:34;11.85;;;1.15;;
62338;SDS011;48368;53.406;6.214;2023-03-14T08:34:01;12.32;;;1.95;;
62338;SDS011;48368;53.406;6.214;2023-03-14T08:36:27;16.88;;;3.50;;
62338;SDS011;48368;53.406;6.214;2023-03-14T08:38:53;19.23;;;1.63;;
62338;SDS011;48368;53.406;6.214;2023-03-14T08:41:19;11.68;;;2.40;;
62338;SDS011;48368;53.406;6.214;2023-03-14T08:43:44;20.75;;;2.88;;
62338;SDS011;48368;53.406;6.214;2023-03-14T08:46:10;19.90;;;3.90;;
62338;SDS011;48368;53.406;6.214;2023-03-14T08:48:36;27.02;;;3.47;;
62338;SDS011;48368;53.406;6.214;2023-03-14T08:51:08;19.08;;;3.53;;
62338;SDS011;48368;53.406;6.214;2023-03-14T08:53:36;16.55;;;2.22;;
62338;SDS011;48368;53.406;6.214;2023-03-14T08:56:02;20.95;;;2.22;;
62338;SDS011;48368;53.406;6.214;2023-03-14T08:58:28;30.08;;;2.40;;
62338;SDS011;48368;53.406;6.214;2023-03-14T09:00:54;14.35;;;1.85;;
62338;SDS011;48368;53.406;6.214;2023-03-14T09:03:20;7.50;;;0.95;;
62338;SDS011;48368;53.406;6.214;2023-03-14T09:05:48;17.38;;;1.83;;
62338;SDS011;48368;53.406;6.214;2023-03-14T09:08:14;22.15;;;2.50;;
62338;SDS011;48368;53.406;6.214;2023-03-14T09:10:40;22.08;;;2.75;;
62338;SDS011;48368;53.406;6.214;2023-03-14T09:13:09;23.75;;;4.88;;
62338;SDS011;48368;53.406;6.214;2023-03-14T09:15:37;18.25;;;3.83;;
62338;SDS011;48368;53.406;6.214;2023-03-14T09:18:15;19.40;;;4.15;;
62338;SDS011;48368;53.406;6.214;2023-03-14T09:20:40;19.95;;;3.95;;
62338;SDS011;48368;53.406;6.214;2023-03-14T09:23:12;10.27;;;1.48;;
62338;SDS011;48368;53.406;6.214;2023-03-14T09:25:38;19.48;;;2.58;;
62338;SDS011;48368;53.406;6.214;2023-03-14T09:28:16;16.80;;;2.92;;
62338;SDS011;48368;53.406;6.214;2023-03-14T09:30:50;29.65;;;3.28;;
62338;SDS011;48368;53.406;6.214;2023-03-14T09:33:16;16.98;;;2.33;;
62338;SDS011;48368;53.406;6.214;2023-03-14T09:35:42;21.98;;;2.80;;
62338;SDS011;48368;53.406;6.214;2023-03-14T09:38:08;23.45;;;3.80;;
62338;SDS011;48368;53.406;6.214;2023-03-14T09:40:34;22.05;;;3.88;;
62338;SDS011;48368;53.406;6.214;2023-03-14T09:43:01;24.77;;;3.67;;
62338;SDS011;48368;53.406;6.214;2023-03-14T09:48:02;14.85;;;3.42;;
62338;SDS011;48368;53.406;6.214;2023-03-14T09:50:31;13.18;;;2.55;;
62338;SDS011;48368;53.406;6.214;2023-03-14T09:53:04;14.27;;;2.92;;
62338;SDS011;48368;53.406;6.214;2023-03-14T09:55:36;26.80;;;2.95;;
62338;SDS011;48368;53.406;6.214;2023-03-14T09:58:04;13.60;;;2.15;;
62338;SDS011;48368;53.406;6.214;2023-03-14T10:00:36;19.13;;;3.83;;
62338;SDS011;48368;53.406;6.214;2023-03-14T10:05:36;9.20;;;1.67;;
62338;SDS011;48368;53.406;6.214;2023-03-14T10:08:03;18.65;;;1.73;;
62338;SDS011;48368;53.406;6.214;2023-03-14T10:10:30;14.50;;;2.03;;
62338;SDS011;48368;53.406;6.214;2023-03-14T10:12:57;11.10;;;1.83;;
62338;SDS011;48368;53.406;6.214;2023-03-14T10:15:25;21.02;;;2.63;;
62338;SDS011;48368;53.406;6.214;2023-03-14T10:17:58;9.57;;;1.33;;
62338;SDS011;48368;53.406;6.214;2023-03-14T10:20:44;9.57;;;1.95;;
62338;SDS011;48368;53.406;6.214;2023-03-14T10:25:59;16.08;;;2.28;;
62338;SDS011;48368;53.406;6.214;2023-03-14T10:28:27;13.65;;;2.15;;
62338;SDS011;48368;53.406;6.214;2023-03-14T10:30:55;9.88;;;1.48;;
62338;SDS011;48368;53.406;6.214;2023-03-14T10:36:23;15.13;;;2.13;;
62338;SDS011;48368;53.406;6.214;2023-03-14T10:38:46;12.75;;;2.53;;
62338;SDS011;48368;53.406;6.214;2023-03-14T10:41:30;12.43;;;1.20;;
62338;SDS011;48368;53.406;6.214;2023-03-14T10:43:57;12.50;;;1.65;;
62338;SDS011;48368;53.406;6.214;2023-03-14T10:46:26;7.68;;;1.95;;
62338;SDS011;48368;53.406;6.214;2023-03-14T10:48:55;6.10;;;1.23;;
62338;SDS011;48368;53.406;6.214;2023-03-14T10:51:29;3.28;;;0.63;;
62338;SDS011;48368;53.406;6.214;2023-03-14T10:54:00;5.78;;;1.10;;
62338;SDS011;48368;53.406;6.214;2023-03-14T10:56:26;10.43;;;1.33;;
62338;SDS011;48368;53.406;6.214;2023-03-14T10:58:57;3.97;;;1.10;;
62338;SDS011;48368;53.406;6.214;2023-03-14T11:15:36;13.07;;;2.05;;
62338;SDS011;48368;53.406;6.214;2023-03-14T11:20:59;8.73;;;1.45;;
62338;SDS011;48368;53.406;6.214;2023-03-14T11:23:50;9.02;;;1.60;;
62338;SDS011;48368;53.406;6.214;2023-03-14T11:26:34;10.63;;;2.33;;
62338;SDS011;48368;53.406;6.214;2023-03-14T11:31:46;11.27;;;1.50;;
62338;SDS011;48368;53.406;6.214;2023-03-14T11:36:53;13.38;;;1.77;;
62338;SDS011;48368;53.406;6.214;2023-03-14T11:39:39;10.50;;;2.45;;
62338;SDS011;48368;53.406;6.214;2023-03-14T11:42:11;9.07;;;1.45;;
62338;SDS011;48368;53.406;6.214;2023-03-14T11:44:43;13.77;;;1.58;;
62338;SDS011;48368;53.406;6.214;2023-03-14T11:55:05;11.63;;;1.88;;
62338;SDS011;48368;53.406;6.214;2023-03-14T11:57:37;19.02;;;3.13;;
62338;SDS011;48368;53.406;6.214;2023-03-14T12:00:19;7.72;;;1.40;;
62338;SDS011;48368;53.406;6.214;2023-03-14T12:14:17;11.13;;;1.77;;
62338;SDS011;48368;53.406;6.214;2023-03-14T12:16:45;5.93;;;1.08;;
62338;SDS011;48368;53.406;6.214;2023-03-14T12:19:35;11.57;;;1.45;;
62338;SDS011;48368;53.406;6.214;2023-03-14T12:24:34;9.68;;;1.65;;
62338;SDS011;48368;53.406;6.214;2023-03-14T12:27:03;6.38;;;0.85;;
62338;SDS011;48368;53.406;6.214;2023-03-14T12:29:30;6.13;;;1.15;;
62338;SDS011;48368;53.406;6.214;2023-03-14T12:43:23;6.65;;;1.42;;
62338;SDS011;48368;53.406;6.214;2023-03-14T12:46:08;9.93;;;1.48;;
62338;SDS011;48368;53.406;6.214;2023-03-14T12:48:41;6.03;;;0.95;;
62338;SDS011;48368;53.406;6.214;2023-03-14T12:51:18;7.00;;;1.10;;
62338;SDS011;48368;53.406;6.214;2023-03-14T12:56:38;11.00;;;1.55;;
62338;SDS011;48368;53.406;6.214;2023-03-14T12:59:38;11.00;;;1.23;;
62338;SDS011;48368;53.406;6.214;2023-03-14T13:02:20;11.15;;;1.52;;
62338;SDS011;48368;53.406;6.214;2023-03-14T13:04:50;7.63;;;1.10;;
62338;SDS011;48368;53.406;6.214;2023-03-14T13:12:38;10.80;;;1.38;;
62338;SDS011;48368;53.406;6.214;2023-03-14T13:15:14;12.35;;;1.95;;
62338;SDS011;48368;53.406;6.214;2023-03-14T13:17:48;13.70;;;2.08;;
62338;SDS011;48368;53.406;6.214;2023-03-14T13:20:24;8.73;;;1.13;;
62338;SDS011;48368;53.406;6.214;2023-03-14T13:22:55;6.40;;;1.67;;
62338;SDS011;48368;53.406;6.214;2023-03-14T13:25:20;13.20;;;1.95;;
62338;SDS011;48368;53.406;6.214;2023-03-14T13:27:48;8.00;;;1.20;;
62338;SDS011;48368;53.406;6.214;2023-03-14T13:30:27;7.00;;;1.58;;
62338;SDS011;48368;53.406;6.214;2023-03-14T13:33:00;4.65;;;0.85;;
62338;SDS011;48368;53.406;6.214;2023-03-14T13:35:29;5.63;;;1.10;;
62338;SDS011;48368;53.406;6.214;2023-03-14T13:38:05;6.35;;;1.23;;
62338;SDS011;48368;53.406;6.214;2023-03-14T13:40:39;12.13;;;1.40;;
62338;SDS011;48368;53.406;6.214;2023-03-14T13:43:16;6.30;;;1.10;;
62338;SDS011;48368;53.406;6.214;2023-03-14T13:45:49;11.50;;;1.20;;
62338;SDS011;48368;53.406;6.214;2023-03-14T13:48:26;4.88;;;0.68;;
62338;SDS011;48368;53.406;6.214;2023-03-14T13:51:04;8.25;;;1.13;;
62338;SDS011;48368;53.406;6.214;2023-03-14T13:53:43;12.30;;;1.85;;
62338;SDS011;48368;53.406;6.214;2023-03-14T13:56:10;8.85;;;1.40;;
62338;SDS011;48368;53.406;6.214;2023-03-14T13:58:37;10.98;;;1.25;;
62338;SDS011;48368;53.406;6.214;2023-03-14T14:01:20;29.95;;;2.53;;
62338;SDS011;48368;53.406;6.214;2023-03-14T14:03:50;7.30;;;1.40;;
62338;SDS011;48368;53.406;6.214;2023-03-14T14:06:23;13.68;;;2.08;;
62338;SDS011;48368;53.406;6.214;2023-03-14T14:08:50;15.15;;;2.72;;
62338;SDS011;48368;53.406;6.214;2023-03-14T14:12:00;17.95;;;1.85;;
62338;SDS011;48368;53.406;6.214;2023-03-14T14:14:16;11.48;;;1.92;;
62338;SDS011;48368;53.406;6.214;2023-03-14T14:16:45;15.10;;;3.03;;
62338;SDS011;48368;53.406;6.214;2023-03-14T14:19:12;11.23;;;1.23;;
62338;SDS011;48368;53.406;6.214;2023-03-14T14:21:40;10.68;;;1.27;;
62338;SDS011;48368;53.406;6.214;2023-03-14T14:24:07;7.10;;;1.25;;
62338;SDS011;48368;53.406;6.214;2023-03-14T14:26:51;8.20;;;1.05;;
62338;SDS011;48368;53.406;6.214;2023-03-14T14:29:23;10.30;;;1.33;;
62338;SDS011;48368;53.406;6.214;2023-03-14T14:35:00;4.38;;;1.17;;
62338;SDS011;48368;53.406;6.214;2023-03-14T14:37:27;10.13;;;2.15;;
62338;SDS011;48368;53.406;6.214;2023-03-14T14:39:55;7.55;;;1.13;;
62338;SDS011;48368;53.406;6.214;2023-03-14T14:42:27;13.63;;;2.35;;
62338;SDS011;48368;53.406;6.214;2023-03-14T14:44:56;6.00;;;1.23;;
62338;SDS011;48368;53.406;6.214;2023-03-14T14:47:24;4.85;;;0.65;;
62338;SDS011;48368;53.406;6.214;2023-03-14T14:49:52;11.30;;;1.20;;
62338;SDS011;48368;53.406;6.214;2023-03-14T14:52:20;7.47;;;0.90;;
62338;SDS011;48368;53.406;6.214;2023-03-14T14:54:59;9.77;;;1.00;;
62338;SDS011;48368;53.406;6.214;2023-03-14T14:57:27;5.47;;;1.27;;
62338;SDS011;48368;53.406;6.214;2023-03-14T14:59:59;6.88;;;1.25;;
62338;SDS011;48368;53.406;6.214;2023-03-14T15:02:36;6.30;;;1.25;;
62338;SDS011;48368;53.406;6.214;2023-03-14T15:05:05;6.75;;;1.50;;
62338;SDS011;48368;53.406;6.214;2023-03-14T15:07:36;19.10;;;3.55;;
62338;SDS011;48368;53.406;6.214;2023-03-14T15:10:02;8.65;;;1.30;;
62338;SDS011;48368;53.406;6.214;2023-03-14T15:12:28;7.93;;;2.25;;
62338;SDS011;48368;53.406;6.214;2023-03-14T15:14:53;11.60;;;1.98;;
62338;SDS011;48368;53.406;6.214;2023-03-14T15:17:22;5.93;;;1.00;;
62338;SDS011;48368;53.406;6.214;2023-03-14T15:19:48;10.60;;;1.73;;
62338;SDS011;48368;53.406;6.214;2023-03-14T15:22:14;10.38;;;1.15;;
62338;SDS011;48368;53.406;6.214;2023-03-14T15:24:40;11.02;;;1.27;;
62338;SDS011;48368;53.406;6.214;2023-03-14T15:27:09;9.27;;;1.15;;
62338;SDS011;48368;53.406;6.214;2023-03-14T15:29:39;11.45;;;1.00;;
62338;SDS011;48368;53.406;6.214;2023-03-14T15:32:04;6.53;;;1.52;;
62338;SDS011;48368;53.406;6.214;2023-03-14T15:34:35;9.15;;;1.52;;
62338;SDS011;48368;53.406;6.214;2023-03-14T15:37:01;10.85;;;1.70;;
62338;SDS011;48368;53.406;6.214;2023-03-14T15:39:32;9.30;;;1.50;;
62338;SDS011;48368;53.406;6.214;2023-03-14T15:42:00;7.60;;;1.23;;
62338;SDS011;48368;53.406;6.214;2023-03-14T15:44:26;13.65;;;2.35;;
62338;SDS011;48368;53.406;6.214;2023-03-14T15:46:52;14.05;;;1.30;;
62338;SDS011;48368;53.406;6.214;2023-03-14T15:49:17;12.18;;;2.35;;
62338;SDS011;48368;53.406;6.214;2023-03-14T15:51:43;11.15;;;1.40;;
62338;SDS011;48368;53.406;6.214;2023-03-14T15:54:09;9.15;;;1.20;;
62338;SDS011;48368;53.406;6.214;2023-03-14T15:56:34;5.20;;;1.10;;
62338;SDS011;48368;53.406;6.214;2023-03-14T15:59:00;6.47;;;1.45;;
62338;SDS011;48368;53.406;6.214;2023-03-14T16:01:25;6.10;;;0.88;;
62338;SDS011;48368;53.406;6.214;2023-03-14T16:03:51;7.30;;;1.48;;
62338;SDS011;48368;53.406;6.214;2023-03-14T16:06:18;4.05;;;1.00;;
62338;SDS011;48368;53.406;6.214;2023-03-14T16:08:44;8.35;;;1.73;;
62338;SDS011;48368;53.406;6.214;2023-03-14T16:11:14;5.63;;;0.93;;
62338;SDS011;48368;53.406;6.214;2023-03-14T16:13:40;10.88;;;1.48;;
62338;SDS011;48368;53.406;6.214;2023-03-14T16:16:06;13.02;;;1.60;;
62338;SDS011;48368;53.406;6.214;2023-03-14T16:18:34;8.05;;;1.30;;